createdAt,value
2018-07-26T00:01:48.144Z,16.50
2018-07-26T00:04:16.056Z,16.50
2018-07-26T00:06:44.056Z,16.50
2018-07-26T00:09:12.012Z,16.50
2018-07-26T00:14:08.328Z,16.40
2018-07-26T00:16:36.284Z,16.30
2018-07-26T00:19:04.335Z,16.30
2018-07-26T00:21:32.332Z,16.20
2018-07-26T00:24:00.261Z,16.10
2018-07-26T00:26:28.172Z,16.20
2018-07-26T00:28:56.135Z,16.20
2018-07-26T00:31:24.106Z,16.20
2018-07-26T00:33:52.031Z,16.20
2018-07-26T00:36:19.977Z,16.20
2018-07-26T00:38:47.918Z,16.20
2018-07-26T00:41:15.946Z,16.20
2018-07-26T00:46:11.621Z,16.20
2018-07-26T00:48:39.540Z,16.20
2018-07-26T00:51:07.593Z,16.20
2018-07-26T00:53:35.515Z,16.10
2018-07-26T00:56:03.500Z,15.90
2018-07-26T00:58:31.424Z,15.80
2018-07-26T01:03:27.184Z,15.70
2018-07-26T01:05:55.098Z,15.70
2018-07-26T01:08:23.068Z,15.80
2018-07-26T01:10:50.993Z,15.70
2018-07-26T01:13:19.036Z,15.80
2018-07-26T01:18:14.701Z,15.70
2018-07-26T01:20:42.688Z,15.80
2018-07-26T01:23:10.716Z,15.80
2018-07-26T01:28:06.565Z,15.70
2018-07-26T01:33:02.352Z,15.60
2018-07-26T01:35:30.289Z,15.60
2018-07-26T01:37:58.195Z,15.60
2018-07-26T01:40:26.131Z,15.60
2018-07-26T01:43:05.156Z,15.50
2018-07-26T01:45:33.160Z,15.40
2018-07-26T01:48:01.108Z,15.30
2018-07-26T01:50:29.030Z,15.30
2018-07-26T01:52:57.019Z,15.20
2018-07-26T01:55:24.989Z,15.10
2018-07-26T01:57:53.065Z,15.10
2018-07-26T02:00:22.369Z,15.00
2018-07-26T02:02:50.337Z,15.00
2018-07-26T02:07:46.124Z,15.10
2018-07-26T02:10:14.025Z,15.20
2018-07-26T02:12:42.021Z,15.30
2018-07-26T02:17:37.752Z,15.50
2018-07-26T02:22:33.448Z,15.60
2018-07-26T02:25:01.365Z,15.60
2018-07-26T02:27:29.309Z,15.70
2018-07-26T02:29:57.248Z,15.70
2018-07-26T02:32:25.184Z,15.70
2018-07-26T02:34:53.197Z,15.80
2018-07-26T02:37:21.250Z,15.80
2018-07-26T02:39:49.333Z,15.80
2018-07-26T02:42:17.390Z,15.90
2018-07-26T02:44:45.697Z,15.80
2018-07-26T02:47:13.983Z,15.80
2018-07-26T02:49:42.329Z,15.80
2018-07-26T02:52:10.656Z,15.60
2018-07-26T02:54:38.871Z,15.50
2018-07-26T02:57:07.016Z,15.60
2018-07-26T03:04:31.869Z,15.40
2018-07-26T03:07:00.954Z,15.30
2018-07-26T03:11:58.204Z,15.20
2018-07-26T03:14:28.565Z,15.20
2018-07-26T03:16:56.736Z,15.20
2018-07-26T03:19:24.929Z,15.30
2018-07-26T03:21:52.985Z,15.30
2018-07-26T03:26:49.039Z,15.30
2018-07-26T03:29:17.132Z,15.30
2018-07-26T03:31:45.570Z,15.20
2018-07-26T03:34:13.897Z,15.00
2018-07-26T03:36:43.676Z,14.80
2018-07-26T03:39:15.238Z,14.60
2018-07-26T03:41:45.429Z,14.40
2018-07-26T03:44:15.347Z,14.40
2018-07-26T03:46:50.531Z,14.50
2018-07-26T03:49:20.442Z,14.60
2018-07-26T03:51:52.638Z,14.70
2018-07-26T03:54:22.437Z,14.80
2018-07-26T03:56:56.094Z,14.80
2018-07-26T04:01:55.989Z,14.80
2018-07-26T04:04:28.155Z,14.80
2018-07-26T04:09:43.254Z,15.20
2018-07-26T04:12:13.866Z,15.70
2018-07-26T04:15:02.498Z,16.30
2018-07-26T04:22:33.645Z,17.80
2018-07-26T04:25:02.396Z,18.20
2018-07-26T04:27:40.937Z,18.50
2018-07-26T04:30:10.662Z,18.80
2018-07-26T04:32:47.445Z,19.30
2018-07-26T04:35:17.977Z,19.50
2018-07-26T04:37:47.573Z,19.70
2018-07-26T04:40:21.336Z,20.20
2018-07-26T04:42:51.337Z,20.80
2018-07-26T04:45:26.743Z,21.40
2018-07-26T04:47:58.656Z,21.60
2018-07-26T04:50:28.209Z,21.80
2018-07-26T04:55:30.595Z,22.90
2018-07-26T04:58:11.053Z,23.20
2018-07-26T05:00:41.180Z,23.40
2018-07-26T05:03:12.361Z,23.60
2018-07-26T05:05:42.886Z,23.80
2018-07-26T05:08:11.120Z,24.10
2018-07-26T05:10:49.969Z,24.30
2018-07-26T05:13:20.485Z,24.60
2018-07-26T05:16:08.787Z,25.00
2018-07-26T05:18:38.620Z,25.20
2018-07-26T05:21:09.630Z,25.80
2018-07-26T05:23:40.816Z,25.90
2018-07-26T05:26:10.910Z,25.90
2018-07-26T05:28:54.313Z,25.80
2018-07-26T05:31:26.252Z,25.70
2018-07-26T05:34:05.771Z,25.80
2018-07-26T05:39:10.067Z,25.80
2018-07-26T05:44:12.225Z,25.70
2018-07-26T05:46:56.298Z,25.60
2018-07-26T05:49:28.733Z,25.30
2018-07-26T05:52:11.076Z,25.30
2018-07-26T05:54:43.870Z,25.60
2018-07-26T05:57:13.893Z,25.60
2018-07-26T05:59:45.562Z,25.60
2018-07-26T06:04:41.627Z,25.20
2018-07-26T06:07:09.804Z,23.70
2018-07-26T06:09:37.895Z,22.50
2018-07-26T06:12:06.474Z,21.70
2018-07-26T06:14:34.530Z,21.50
2018-07-26T06:17:02.745Z,21.50
2018-07-26T06:19:30.781Z,21.60
2018-07-26T06:21:58.985Z,21.50
2018-07-26T06:24:27.158Z,21.50
2018-07-26T06:26:55.191Z,21.60
2018-07-26T06:31:51.157Z,21.70
2018-07-26T06:34:19.264Z,21.90
2018-07-26T06:36:47.391Z,21.90
2018-07-26T06:39:15.587Z,22.00
2018-07-26T06:41:44.248Z,22.10
2018-07-26T06:44:13.239Z,22.20
2018-07-26T06:51:37.983Z,22.60
2018-07-26T06:54:06.385Z,22.60
2018-07-26T06:56:34.344Z,22.80
2018-07-26T06:59:02.536Z,23.00
2018-07-26T07:01:30.688Z,23.00
2018-07-26T07:03:58.776Z,22.90
2018-07-26T07:06:26.836Z,23.00
2018-07-26T07:08:55.028Z,23.20
2018-07-26T07:11:23.308Z,23.30
2018-07-26T07:13:51.480Z,23.20
2018-07-26T07:16:19.525Z,23.30
2018-07-26T07:18:47.632Z,23.50
2018-07-26T07:21:16.397Z,23.60
2018-07-26T07:23:44.459Z,23.40
2018-07-26T07:28:40.513Z,23.50
2018-07-26T07:31:08.823Z,23.70
2018-07-26T07:33:36.872Z,23.80
2018-07-26T07:36:04.959Z,23.90
2018-07-26T07:38:33.212Z,24.10
2018-07-26T07:41:01.412Z,24.20
2018-07-26T07:43:29.560Z,24.20
2018-07-26T07:45:57.681Z,24.20
2018-07-26T07:48:25.916Z,24.40
2018-07-26T07:50:54.034Z,24.40
2018-07-26T07:53:22.090Z,24.50
2018-07-26T07:55:50.235Z,24.70
2018-07-26T07:58:18.344Z,24.60
2018-07-26T08:00:46.498Z,24.60
2018-07-26T08:03:14.591Z,24.70
2018-07-26T08:05:43.465Z,24.90
2018-07-26T08:08:11.657Z,25.10
2018-07-26T08:10:39.696Z,25.10
2018-07-26T08:15:35.760Z,25.00
2018-07-26T08:18:04.017Z,25.10
2018-07-26T08:23:00.077Z,25.20
2018-07-26T08:25:28.166Z,25.10
2018-07-26T08:27:56.328Z,25.40
2018-07-26T08:30:24.624Z,25.50
2018-07-26T08:32:53.480Z,25.60
2018-07-26T08:37:49.420Z,25.80
2018-07-26T08:47:41.322Z,26.20
2018-07-26T08:50:09.548Z,26.30
2018-07-26T08:52:37.529Z,26.40
2018-07-26T08:55:05.916Z,26.40
2018-07-26T08:57:34.020Z,26.50
2018-07-26T09:00:02.104Z,26.40
2018-07-26T09:02:30.637Z,26.40
2018-07-26T09:04:59.159Z,26.60
2018-07-26T09:12:37.533Z,27.00
2018-07-26T09:15:06.497Z,26.90
2018-07-26T09:17:35.046Z,26.60
2018-07-26T09:20:03.466Z,26.90
2018-07-26T09:22:31.664Z,26.90
2018-07-26T09:24:59.742Z,26.50
2018-07-26T09:27:27.796Z,26.50
2018-07-26T09:29:55.892Z,26.80
2018-07-26T09:32:23.933Z,26.90
2018-07-26T09:34:52.025Z,27.00
2018-07-26T09:37:20.192Z,27.00
2018-07-26T09:39:48.384Z,27.10
2018-07-26T09:42:16.425Z,27.30
2018-07-26T09:44:44.525Z,27.10
2018-07-26T09:47:12.776Z,27.00
2018-07-26T09:49:40.778Z,27.20
2018-07-26T09:52:08.961Z,27.40
2018-07-26T09:54:37.021Z,27.40
2018-07-26T09:57:05.209Z,27.60
2018-07-26T09:59:33.248Z,27.80
2018-07-26T10:02:01.346Z,27.70
2018-07-26T10:04:29.517Z,27.80
2018-07-26T10:06:57.755Z,27.90
2018-07-26T10:09:25.870Z,27.80
2018-07-26T10:11:54.176Z,27.80
2018-07-26T10:14:22.424Z,27.80
2018-07-26T10:16:50.532Z,28.00
2018-07-26T10:19:18.654Z,27.90
2018-07-26T10:21:46.800Z,28.00
2018-07-26T10:26:42.980Z,27.90
2018-07-26T10:29:11.068Z,28.20
2018-07-26T10:31:39.199Z,27.70
2018-07-26T10:36:35.274Z,27.70
2018-07-26T10:39:04.537Z,27.90
2018-07-26T10:41:32.641Z,27.90
2018-07-26T10:44:00.954Z,28.40
2018-07-26T10:46:29.073Z,28.50
2018-07-26T10:51:25.284Z,28.70
2018-07-26T10:53:53.524Z,29.00
2018-07-26T10:56:21.733Z,28.90
2018-07-26T10:58:49.768Z,28.80
2018-07-26T11:01:17.971Z,28.80
2018-07-26T11:03:46.309Z,28.90
2018-07-26T11:06:14.325Z,29.20
2018-07-26T11:08:42.620Z,29.30
2018-07-26T11:11:10.888Z,29.40
2018-07-26T11:13:38.940Z,29.50
2018-07-26T11:16:07.124Z,29.70
2018-07-26T11:18:35.169Z,29.30
2018-07-26T11:23:31.280Z,28.90
2018-07-26T11:25:59.429Z,29.00
2018-07-26T11:28:27.564Z,29.00
2018-07-26T11:33:23.728Z,29.20
2018-07-26T11:35:51.892Z,29.20
2018-07-26T11:38:19.873Z,28.10
2018-07-26T11:40:47.968Z,27.80
2018-07-26T11:43:16.091Z,27.40
2018-07-26T11:48:11.945Z,27.90
2018-07-26T11:53:07.932Z,28.20
2018-07-26T11:55:35.959Z,28.20
2018-07-26T12:00:31.965Z,28.10
2018-07-26T12:03:00.105Z,28.30
2018-07-26T12:05:28.260Z,28.60
2018-07-26T12:07:56.596Z,28.80
2018-07-26T12:10:24.807Z,28.90
2018-07-26T12:15:20.716Z,29.80
2018-07-26T12:17:48.802Z,29.90
2018-07-26T12:20:17.040Z,29.50
2018-07-26T12:22:45.062Z,29.00
2018-07-26T12:25:13.363Z,28.40
2018-07-26T12:27:41.439Z,28.10
2018-07-26T12:30:09.535Z,28.00
2018-07-26T12:32:37.774Z,28.30
2018-07-26T12:35:05.876Z,28.70
2018-07-26T12:37:33.940Z,28.90
2018-07-26T12:40:02.237Z,28.70
2018-07-26T12:42:30.412Z,28.50
2018-07-26T12:44:58.590Z,28.60
2018-07-26T12:47:26.916Z,28.80
2018-07-26T12:49:55.154Z,29.10
2018-07-26T12:52:23.441Z,29.30
2018-07-26T12:54:51.494Z,29.10
2018-07-26T12:57:19.770Z,29.20
2018-07-26T12:59:47.768Z,29.10
2018-07-26T13:02:15.805Z,28.90
2018-07-26T13:04:43.880Z,28.90
2018-07-26T13:07:11.998Z,28.80
2018-07-26T13:09:40.005Z,29.00
2018-07-26T13:12:08.204Z,29.10
2018-07-26T13:14:36.461Z,29.10
2018-07-26T13:17:04.545Z,29.00
2018-07-26T13:19:32.606Z,28.90
2018-07-26T13:22:00.904Z,29.10
2018-07-26T13:24:29.274Z,28.90
2018-07-26T13:26:57.566Z,28.90
2018-07-26T13:29:25.618Z,29.20
2018-07-26T13:31:53.833Z,29.30
2018-07-26T13:34:22.044Z,29.00
2018-07-26T13:36:50.077Z,29.10
2018-07-26T13:39:18.114Z,29.20
2018-07-26T13:44:14.161Z,29.10
2018-07-26T13:46:42.256Z,29.10
2018-07-26T13:49:10.321Z,29.10
2018-07-26T13:51:38.376Z,29.20
2018-07-26T13:54:06.880Z,29.30
2018-07-26T13:56:35.136Z,29.30
2018-07-26T13:59:03.249Z,29.40
2018-07-26T14:01:31.285Z,29.50
2018-07-26T14:03:59.426Z,29.50
2018-07-26T14:06:27.428Z,29.50
2018-07-26T14:08:55.520Z,29.70
2018-07-26T14:11:23.577Z,29.70
2018-07-26T14:13:51.792Z,29.60
2018-07-26T14:16:19.942Z,29.70
2018-07-26T14:18:48.033Z,29.70
2018-07-26T14:21:16.081Z,29.60
2018-07-26T14:23:44.169Z,29.50
2018-07-26T14:26:12.877Z,29.20
2018-07-26T14:28:41.397Z,29.00
2018-07-26T14:31:10.213Z,28.60
2018-07-26T14:33:38.442Z,28.90
2018-07-26T14:36:06.604Z,29.20
2018-07-26T14:38:34.632Z,29.30
2018-07-26T14:41:02.864Z,29.40
2018-07-26T14:43:31.004Z,29.50
2018-07-26T14:45:59.076Z,29.50
2018-07-26T14:48:27.236Z,29.70
2018-07-26T14:50:55.642Z,29.70
2018-07-26T14:53:23.689Z,29.60
2018-07-26T14:55:51.984Z,29.60
2018-07-26T14:58:20.157Z,29.80
2018-07-26T15:00:48.263Z,30.00
2018-07-26T15:03:16.384Z,30.10
2018-07-26T15:05:44.501Z,29.90
2018-07-26T15:08:12.643Z,29.90
2018-07-26T15:10:40.742Z,29.70
2018-07-26T15:13:08.781Z,29.60
2018-07-26T15:18:04.929Z,29.60
2018-07-26T15:20:33.166Z,29.60
2018-07-26T15:23:01.223Z,29.60
2018-07-26T15:25:29.291Z,29.40
2018-07-26T15:27:57.457Z,29.70
2018-07-26T15:30:25.608Z,29.60
2018-07-26T15:32:54.325Z,29.30
2018-07-26T15:35:34.792Z,29.20
2018-07-26T15:38:02.948Z,29.20
2018-07-26T15:40:31.005Z,29.50
2018-07-26T15:42:59.097Z,29.60
2018-07-26T15:45:27.284Z,30.00
2018-07-26T15:47:55.563Z,30.20
2018-07-26T15:50:23.724Z,30.30
2018-07-26T15:52:51.911Z,30.50
2018-07-26T15:55:19.973Z,30.50
2018-07-26T15:57:48.289Z,30.50
2018-07-26T16:00:16.308Z,30.50
2018-07-26T16:02:44.608Z,30.60
2018-07-26T16:05:12.934Z,30.60
2018-07-26T16:07:41.159Z,30.50
2018-07-26T16:10:09.531Z,30.20
2018-07-26T16:12:37.928Z,30.10
2018-07-26T16:15:08.088Z,30.10
2018-07-26T16:17:36.302Z,30.00
2018-07-26T16:20:06.229Z,29.70
2018-07-26T16:22:34.500Z,29.50
2018-07-26T16:25:02.712Z,29.10
2018-07-26T16:27:31.046Z,28.90
2018-07-26T16:29:59.165Z,28.80
2018-07-26T16:32:27.297Z,28.60
2018-07-26T16:34:56.200Z,28.50
2018-07-26T16:39:52.420Z,29.30
2018-07-26T16:42:20.410Z,29.70
2018-07-26T16:44:48.505Z,29.60
2018-07-26T16:47:16.545Z,29.70
2018-07-26T16:52:12.594Z,32.00
2018-07-26T16:57:28.141Z,33.20
2018-07-26T16:59:58.395Z,33.60
2018-07-26T17:02:28.982Z,34.10
2018-07-26T17:05:07.833Z,33.50
2018-07-26T17:07:38.541Z,33.30
2018-07-26T17:10:10.098Z,33.20
2018-07-26T17:12:38.357Z,33.60
2018-07-26T17:15:07.799Z,33.20
2018-07-26T17:17:35.837Z,32.60
2018-07-26T17:20:04.744Z,32.80
2018-07-26T17:22:32.921Z,32.50
2018-07-26T17:25:00.996Z,32.30
2018-07-26T17:27:29.040Z,32.50
2018-07-26T17:32:25.270Z,32.60
2018-07-26T17:34:53.298Z,32.40
2018-07-26T17:37:21.337Z,32.20
2018-07-26T17:39:49.441Z,31.90
2018-07-26T17:42:17.593Z,31.80
2018-07-26T17:44:45.695Z,31.30
2018-07-26T17:47:13.853Z,30.30
2018-07-26T17:49:41.975Z,30.10
2018-07-26T17:52:10.096Z,29.50
2018-07-26T17:54:38.404Z,29.40
2018-07-26T17:57:06.985Z,29.40
2018-07-26T17:59:35.288Z,28.50
2018-07-26T18:02:03.616Z,27.90
2018-07-26T18:04:31.813Z,27.20
2018-07-26T18:06:59.847Z,26.70
2018-07-26T18:11:56.156Z,26.60
2018-07-26T18:14:30.153Z,27.10
2018-07-26T18:17:00.659Z,27.50
2018-07-26T18:19:30.220Z,27.50
2018-07-26T18:21:59.066Z,27.40
2018-07-26T18:24:29.786Z,27.20
2018-07-26T18:26:59.955Z,26.60
2018-07-26T18:29:31.505Z,26.00
2018-07-26T18:32:01.139Z,25.60
2018-07-26T18:36:59.465Z,25.10
2018-07-26T18:39:28.192Z,24.80
2018-07-26T18:41:57.282Z,24.70
2018-07-26T18:44:26.387Z,24.40
2018-07-26T18:46:55.998Z,24.30
2018-07-26T18:49:26.785Z,24.20
2018-07-26T18:51:56.004Z,24.00
2018-07-26T18:54:25.194Z,23.80
2018-07-26T18:56:54.320Z,23.60
2018-07-26T18:59:22.813Z,23.40
2018-07-26T19:04:19.567Z,23.20
2018-07-26T19:06:49.768Z,23.10
2018-07-26T19:09:19.932Z,23.00
2018-07-26T19:11:48.756Z,22.80
2018-07-26T19:16:44.993Z,22.30
2018-07-26T19:19:13.475Z,22.00
2018-07-26T19:21:42.161Z,21.80
2018-07-26T19:24:11.197Z,21.70
2018-07-26T19:26:40.573Z,21.50
2018-07-26T19:29:09.041Z,21.40
2018-07-26T19:31:37.638Z,21.30
2018-07-26T19:34:07.661Z,21.20
2018-07-26T19:44:05.834Z,21.10
2018-07-26T19:46:36.012Z,21.00
2018-07-26T19:49:04.811Z,20.90
2018-07-26T19:51:34.545Z,20.80
2018-07-26T19:54:03.318Z,20.60
2018-07-26T19:56:31.337Z,20.60
2018-07-26T19:58:59.297Z,20.60
2018-07-26T20:01:27.513Z,20.50
2018-07-26T20:03:55.666Z,20.40
2018-07-26T20:06:25.669Z,20.30
2018-07-26T20:08:53.735Z,20.20
2018-07-26T20:11:21.996Z,20.10
2018-07-26T20:13:50.038Z,20.00
2018-07-26T20:18:48.780Z,19.90
2018-07-26T20:21:20.315Z,19.90
2018-07-26T20:23:48.424Z,19.90
2018-07-26T20:26:16.472Z,19.80
2018-07-26T20:28:44.564Z,19.80
2018-07-26T20:31:12.617Z,19.80
2018-07-26T20:33:40.716Z,19.80
2018-07-26T20:36:08.761Z,19.70
2018-07-26T20:38:36.960Z,19.60
2018-07-26T20:41:05.110Z,19.50
2018-07-26T20:43:33.378Z,19.40
2018-07-26T20:48:29.440Z,19.20
2018-07-26T20:50:57.425Z,19.20
2018-07-26T20:53:25.621Z,19.20
2018-07-26T20:55:53.880Z,19.30
2018-07-26T20:58:22.047Z,19.30
2018-07-26T21:00:52.237Z,19.40
2018-07-26T21:05:52.413Z,19.30
2018-07-26T21:08:20.622Z,19.30
2018-07-26T21:10:48.642Z,19.30
2018-07-26T21:15:44.688Z,19.30
2018-07-26T21:20:40.639Z,19.30
2018-07-26T21:23:08.859Z,19.30
2018-07-26T21:25:36.977Z,19.30
2018-07-26T21:30:32.936Z,19.20
2018-07-26T21:33:01.044Z,19.20
2018-07-26T21:35:29.190Z,19.40
2018-07-26T21:37:57.383Z,19.50
2018-07-26T21:40:25.425Z,19.70
2018-07-26T21:42:53.519Z,19.80
2018-07-26T21:45:21.687Z,19.90
2018-07-26T21:47:49.773Z,20.10
2018-07-26T21:50:17.820Z,20.20
2018-07-26T21:52:46.014Z,20.20
2018-07-26T21:55:14.192Z,20.20
2018-07-26T21:57:42.284Z,20.10
2018-07-26T22:00:11.040Z,20.10
2018-07-26T22:02:39.311Z,20.00
2018-07-26T22:05:07.393Z,19.90
2018-07-26T22:07:35.897Z,19.90
2018-07-26T22:10:04.360Z,19.80
2018-07-26T22:12:32.462Z,19.80
2018-07-26T22:15:00.610Z,19.80
2018-07-26T22:17:28.669Z,19.70
2018-07-26T22:22:24.928Z,19.40
2018-07-26T22:24:53.121Z,19.30
2018-07-26T22:27:21.385Z,19.30
2018-07-26T22:29:49.478Z,19.30
2018-07-26T22:32:17.523Z,19.20
2018-07-26T22:34:45.635Z,19.00
2018-07-26T22:37:13.565Z,18.80
2018-07-26T22:39:41.776Z,18.60
2018-07-26T22:42:10.027Z,18.40
2018-07-26T22:44:38.343Z,18.10
2018-07-26T22:47:06.667Z,17.90
2018-07-26T22:52:02.863Z,17.70
2018-07-26T22:54:30.996Z,17.60
2018-07-26T22:56:59.199Z,17.50
2018-07-26T22:59:27.349Z,17.50
2018-07-26T23:01:55.536Z,17.40
2018-07-26T23:04:23.825Z,17.40
2018-07-26T23:06:51.896Z,17.50
2018-07-26T23:09:20.061Z,17.60
2018-07-26T23:11:48.256Z,17.60
2018-07-26T23:14:16.287Z,17.50
2018-07-26T23:19:12.325Z,17.40
2018-07-26T23:21:40.460Z,17.30
2018-07-26T23:24:08.501Z,17.30
2018-07-26T23:26:36.788Z,17.20
2018-07-26T23:29:05.150Z,17.20
2018-07-26T23:31:33.247Z,17.30
2018-07-26T23:34:01.338Z,17.20
2018-07-26T23:36:29.499Z,17.10
2018-07-26T23:38:57.572Z,17.00
2018-07-26T23:41:25.612Z,17.00
2018-07-26T23:46:21.682Z,16.90
2018-07-26T23:48:49.762Z,17.00
2018-07-26T23:51:17.826Z,17.00
2018-07-26T23:53:45.999Z,16.90
2018-07-26T23:56:14.297Z,16.70
2018-07-26T23:58:42.457Z,16.60
